Chester, Georgia
Current Conditions -  °F | °C
As of 3:55 AM on Friday 31 Oct 2014 (Local Time) from KEZM Reporting Station
Clear Clear  
Wind Chill: 48°   Ceiling: Unl
Heat Index: 48°   Visibility: 10mi
Dew Point: 47°   Wind: 3mph
Humidity: 98%   Direction: 350°N
Pressure: 29.94"   Gusts: NA
Location:  32.39°N, 83.15°W
Report Text: KEZM 310755Z AUTO 35003KT 10SM CLR 09/09 A2994 RMK AO2 T00880085
Loading
Personal Weather Stations






























Interactive Weather Map
Tropical Storm Tracking
New forecast layout! Learn more

10-Day Weather Forecast

Advertisements
Track Severe Weather on mobile